sensor_id;sensor_type;location;lat;lon;timestamp;P1;durP1;ratioP1;P2;durP2;ratioP2
9178;SDS011;4624;48.126;11.546;2022-12-18T00:00:45;26.33;;;15.07;;
9178;SDS011;4624;48.126;11.546;2022-12-18T00:03:13;26.57;;;14.90;;
9178;SDS011;4624;48.126;11.546;2022-12-18T00:05:45;32.13;;;17.23;;
9178;SDS011;4624;48.126;11.546;2022-12-18T00:08:13;32.87;;;16.40;;
9178;SDS011;4624;48.126;11.546;2022-12-18T00:10:40;29.13;;;16.20;;
9178;SDS011;4624;48.126;11.546;2022-12-18T00:13:08;42.10;;;15.77;;
9178;SDS011;4624;48.126;11.546;2022-12-18T00:15:36;27.07;;;14.47;;
9178;SDS011;4624;48.126;11.546;2022-12-18T00:18:04;27.03;;;15.03;;
9178;SDS011;4624;48.126;11.546;2022-12-18T00:20:35;27.90;;;15.30;;
9178;SDS011;4624;48.126;11.546;2022-12-18T00:23:03;24.30;;;14.03;;
9178;SDS011;4624;48.126;11.546;2022-12-18T00:25:32;32.57;;;17.00;;
9178;SDS011;4624;48.126;11.546;2022-12-18T00:27:59;30.17;;;16.13;;
9178;SDS011;4624;48.126;11.546;2022-12-18T00:30:26;29.37;;;16.13;;
9178;SDS011;4624;48.126;11.546;2022-12-18T00:32:54;28.93;;;15.67;;
9178;SDS011;4624;48.126;11.546;2022-12-18T00:35:21;34.87;;;18.23;;
9178;SDS011;4624;48.126;11.546;2022-12-18T00:37:48;30.53;;;17.00;;
9178;SDS011;4624;48.126;11.546;2022-12-18T00:40:15;33.07;;;17.73;;
9178;SDS011;4624;48.126;11.546;2022-12-18T00:42:42;34.90;;;17.07;;
9178;SDS011;4624;48.126;11.546;2022-12-18T00:45:26;37.90;;;18.77;;
9178;SDS011;4624;48.126;11.546;2022-12-18T00:47:56;35.33;;;17.87;;
9178;SDS011;4624;48.126;11.546;2022-12-18T00:50:24;35.07;;;17.83;;
9178;SDS011;4624;48.126;11.546;2022-12-18T00:52:51;39.37;;;18.73;;
9178;SDS011;4624;48.126;11.546;2022-12-18T00:55:18;33.33;;;17.60;;
9178;SDS011;4624;48.126;11.546;2022-12-18T00:57:45;35.13;;;18.93;;
9178;SDS011;4624;48.126;11.546;2022-12-18T01:00:13;32.27;;;17.37;;
9178;SDS011;4624;48.126;11.546;2022-12-18T01:02:40;36.43;;;17.83;;
9178;SDS011;4624;48.126;11.546;2022-12-18T01:05:09;30.77;;;16.50;;
9178;SDS011;4624;48.126;11.546;2022-12-18T01:07:37;29.40;;;16.73;;
9178;SDS011;4624;48.126;11.546;2022-12-18T01:10:04;31.43;;;16.93;;
9178;SDS011;4624;48.126;11.546;2022-12-18T01:12:32;30.30;;;14.33;;
9178;SDS011;4624;48.126;11.546;2022-12-18T01:14:59;27.80;;;14.50;;
9178;SDS011;4624;48.126;11.546;2022-12-18T01:17:26;31.13;;;15.30;;
9178;SDS011;4624;48.126;11.546;2022-12-18T01:19:52;31.03;;;16.30;;
9178;SDS011;4624;48.126;11.546;2022-12-18T01:22:21;30.17;;;15.97;;
9178;SDS011;4624;48.126;11.546;2022-12-18T01:24:47;25.90;;;13.87;;
9178;SDS011;4624;48.126;11.546;2022-12-18T01:27:14;28.47;;;15.20;;
9178;SDS011;4624;48.126;11.546;2022-12-18T01:29:41;28.40;;;15.60;;
9178;SDS011;4624;48.126;11.546;2022-12-18T01:32:08;28.03;;;15.60;;
9178;SDS011;4624;48.126;11.546;2022-12-18T01:34:35;28.10;;;14.90;;
9178;SDS011;4624;48.126;11.546;2022-12-18T01:37:02;29.97;;;15.83;;
9178;SDS011;4624;48.126;11.546;2022-12-18T01:39:31;28.53;;;16.27;;
9178;SDS011;4624;48.126;11.546;2022-12-18T01:41:59;29.60;;;16.57;;
9178;SDS011;4624;48.126;11.546;2022-12-18T01:47:23;29.00;;;15.60;;
9178;SDS011;4624;48.126;11.546;2022-12-18T01:49:53;30.87;;;16.53;;
9178;SDS011;4624;48.126;11.546;2022-12-18T01:52:21;27.07;;;15.43;;
9178;SDS011;4624;48.126;11.546;2022-12-18T01:54:52;28.67;;;15.10;;
9178;SDS011;4624;48.126;11.546;2022-12-18T01:57:20;28.57;;;16.30;;
9178;SDS011;4624;48.126;11.546;2022-12-18T01:59:49;30.10;;;16.40;;
9178;SDS011;4624;48.126;11.546;2022-12-18T02:02:20;27.93;;;15.47;;
9178;SDS011;4624;48.126;11.546;2022-12-18T02:04:47;29.07;;;15.00;;
9178;SDS011;4624;48.126;11.546;2022-12-18T02:07:14;31.13;;;15.67;;
9178;SDS011;4624;48.126;11.546;2022-12-18T02:09:50;30.10;;;16.57;;
9178;SDS011;4624;48.126;11.546;2022-12-18T02:12:23;30.23;;;17.63;;
9178;SDS011;4624;48.126;11.546;2022-12-18T02:14:55;32.27;;;15.97;;
9178;SDS011;4624;48.126;11.546;2022-12-18T02:17:28;29.37;;;16.60;;
9178;SDS011;4624;48.126;11.546;2022-12-18T02:20:04;33.33;;;17.50;;
9178;SDS011;4624;48.126;11.546;2022-12-18T02:22:41;31.60;;;17.40;;
9178;SDS011;4624;48.126;11.546;2022-12-18T02:25:19;33.73;;;17.30;;
9178;SDS011;4624;48.126;11.546;2022-12-18T02:27:56;32.33;;;16.90;;
9178;SDS011;4624;48.126;11.546;2022-12-18T02:30:26;30.37;;;15.90;;
9178;SDS011;4624;48.126;11.546;2022-12-18T02:32:57;34.03;;;17.27;;
9178;SDS011;4624;48.126;11.546;2022-12-18T02:35:27;33.03;;;17.63;;
9178;SDS011;4624;48.126;11.546;2022-12-18T02:37:56;36.27;;;17.60;;
9178;SDS011;4624;48.126;11.546;2022-12-18T02:40:24;32.17;;;16.37;;
9178;SDS011;4624;48.126;11.546;2022-12-18T02:42:53;31.13;;;16.50;;
9178;SDS011;4624;48.126;11.546;2022-12-18T02:45:21;35.03;;;17.67;;
9178;SDS011;4624;48.126;11.546;2022-12-18T02:47:48;28.90;;;15.53;;
9178;SDS011;4624;48.126;11.546;2022-12-18T02:50:17;34.87;;;17.50;;
9178;SDS011;4624;48.126;11.546;2022-12-18T02:52:50;33.63;;;17.63;;
9178;SDS011;4624;48.126;11.546;2022-12-18T02:55:28;29.33;;;17.17;;
9178;SDS011;4624;48.126;11.546;2022-12-18T02:58:03;37.23;;;18.90;;
9178;SDS011;4624;48.126;11.546;2022-12-18T03:00:39;32.67;;;17.53;;
9178;SDS011;4624;48.126;11.546;2022-12-18T03:03:09;32.23;;;16.80;;
9178;SDS011;4624;48.126;11.546;2022-12-18T03:05:43;35.13;;;17.47;;
9178;SDS011;4624;48.126;11.546;2022-12-18T03:08:18;32.80;;;17.00;;
9178;SDS011;4624;48.126;11.546;2022-12-18T03:10:49;33.80;;;16.93;;
9178;SDS011;4624;48.126;11.546;2022-12-18T03:13:26;31.07;;;16.33;;
9178;SDS011;4624;48.126;11.546;2022-12-18T03:15:57;32.17;;;14.90;;
9178;SDS011;4624;48.126;11.546;2022-12-18T03:18:27;30.80;;;17.57;;
9178;SDS011;4624;48.126;11.546;2022-12-18T03:20:59;33.00;;;18.37;;
9178;SDS011;4624;48.126;11.546;2022-12-18T03:23:32;34.40;;;18.90;;
9178;SDS011;4624;48.126;11.546;2022-12-18T03:26:04;35.43;;;18.50;;
9178;SDS011;4624;48.126;11.546;2022-12-18T03:28:34;30.13;;;16.63;;
9178;SDS011;4624;48.126;11.546;2022-12-18T03:31:06;32.93;;;17.17;;
9178;SDS011;4624;48.126;11.546;2022-12-18T03:33:37;34.50;;;17.97;;
9178;SDS011;4624;48.126;11.546;2022-12-18T03:36:07;28.73;;;17.43;;
9178;SDS011;4624;48.126;11.546;2022-12-18T03:38:34;32.43;;;16.70;;
9178;SDS011;4624;48.126;11.546;2022-12-18T03:41:03;32.77;;;17.83;;
9178;SDS011;4624;48.126;11.546;2022-12-18T03:43:39;34.77;;;18.70;;
9178;SDS011;4624;48.126;11.546;2022-12-18T03:46:14;30.90;;;16.50;;
9178;SDS011;4624;48.126;11.546;2022-12-18T03:48:52;32.73;;;18.13;;
9178;SDS011;4624;48.126;11.546;2022-12-18T03:51:26;34.57;;;17.90;;
9178;SDS011;4624;48.126;11.546;2022-12-18T03:54:02;31.77;;;17.50;;
9178;SDS011;4624;48.126;11.546;2022-12-18T03:56:33;34.03;;;17.83;;
9178;SDS011;4624;48.126;11.546;2022-12-18T03:59:02;29.77;;;15.67;;
9178;SDS011;4624;48.126;11.546;2022-12-18T04:01:34;32.03;;;18.03;;
9178;SDS011;4624;48.126;11.546;2022-12-18T04:04:04;33.17;;;17.53;;
9178;SDS011;4624;48.126;11.546;2022-12-18T04:06:32;33.10;;;17.27;;
9178;SDS011;4624;48.126;11.546;2022-12-18T04:09:02;33.40;;;17.80;;
9178;SDS011;4624;48.126;11.546;2022-12-18T04:11:30;32.37;;;16.53;;
9178;SDS011;4624;48.126;11.546;2022-12-18T04:13:57;31.70;;;16.87;;
9178;SDS011;4624;48.126;11.546;2022-12-18T04:16:24;34.90;;;17.43;;
9178;SDS011;4624;48.126;11.546;2022-12-18T04:18:52;33.13;;;17.40;;
9178;SDS011;4624;48.126;11.546;2022-12-18T04:21:19;29.60;;;14.67;;
9178;SDS011;4624;48.126;11.546;2022-12-18T04:23:47;32.60;;;17.93;;
9178;SDS011;4624;48.126;11.546;2022-12-18T04:26:14;32.73;;;19.43;;
9178;SDS011;4624;48.126;11.546;2022-12-18T04:28:41;35.70;;;19.30;;
9178;SDS011;4624;48.126;11.546;2022-12-18T04:31:07;34.10;;;17.87;;
9178;SDS011;4624;48.126;11.546;2022-12-18T04:33:34;31.17;;;16.53;;
9178;SDS011;4624;48.126;11.546;2022-12-18T04:36:02;33.67;;;17.93;;
9178;SDS011;4624;48.126;11.546;2022-12-18T04:38:30;34.97;;;17.07;;
9178;SDS011;4624;48.126;11.546;2022-12-18T04:40:57;29.97;;;17.70;;
9178;SDS011;4624;48.126;11.546;2022-12-18T04:43:24;28.70;;;16.17;;
9178;SDS011;4624;48.126;11.546;2022-12-18T04:45:50;33.93;;;17.13;;
9178;SDS011;4624;48.126;11.546;2022-12-18T04:48:17;31.13;;;16.30;;
9178;SDS011;4624;48.126;11.546;2022-12-18T04:50:46;29.23;;;16.33;;
9178;SDS011;4624;48.126;11.546;2022-12-18T04:53:14;27.20;;;15.17;;
9178;SDS011;4624;48.126;11.546;2022-12-18T04:55:41;27.43;;;14.47;;
9178;SDS011;4624;48.126;11.546;2022-12-18T04:58:08;30.03;;;15.30;;
9178;SDS011;4624;48.126;11.546;2022-12-18T05:00:35;30.50;;;15.93;;
9178;SDS011;4624;48.126;11.546;2022-12-18T05:03:01;30.47;;;15.60;;
9178;SDS011;4624;48.126;11.546;2022-12-18T05:05:28;27.07;;;14.70;;
9178;SDS011;4624;48.126;11.546;2022-12-18T05:07:55;27.83;;;15.10;;
9178;SDS011;4624;48.126;11.546;2022-12-18T05:10:23;27.90;;;14.93;;
9178;SDS011;4624;48.126;11.546;2022-12-18T05:12:50;28.93;;;15.60;;
9178;SDS011;4624;48.126;11.546;2022-12-18T05:15:26;25.47;;;15.07;;
9178;SDS011;4624;48.126;11.546;2022-12-18T05:17:54;26.90;;;14.87;;
9178;SDS011;4624;48.126;11.546;2022-12-18T05:20:21;24.80;;;13.93;;
9178;SDS011;4624;48.126;11.546;2022-12-18T05:22:47;25.73;;;14.63;;
9178;SDS011;4624;48.126;11.546;2022-12-18T05:25:14;22.83;;;13.00;;
9178;SDS011;4624;48.126;11.546;2022-12-18T05:27:42;25.37;;;14.93;;
9178;SDS011;4624;48.126;11.546;2022-12-18T05:30:10;22.00;;;13.40;;
9178;SDS011;4624;48.126;11.546;2022-12-18T05:32:37;22.83;;;13.17;;
9178;SDS011;4624;48.126;11.546;2022-12-18T05:35:05;21.53;;;12.77;;
9178;SDS011;4624;48.126;11.546;2022-12-18T05:37:34;28.53;;;15.33;;
9178;SDS011;4624;48.126;11.546;2022-12-18T05:40:00;25.87;;;13.53;;
9178;SDS011;4624;48.126;11.546;2022-12-18T05:42:27;26.40;;;13.77;;
9178;SDS011;4624;48.126;11.546;2022-12-18T05:44:55;26.57;;;13.83;;
9178;SDS011;4624;48.126;11.546;2022-12-18T05:47:22;24.63;;;14.43;;
9178;SDS011;4624;48.126;11.546;2022-12-18T05:49:49;25.73;;;13.57;;
9178;SDS011;4624;48.126;11.546;2022-12-18T05:52:15;26.87;;;14.67;;
9178;SDS011;4624;48.126;11.546;2022-12-18T05:54:42;25.93;;;14.33;;
9178;SDS011;4624;48.126;11.546;2022-12-18T05:57:09;27.07;;;15.00;;
9178;SDS011;4624;48.126;11.546;2022-12-18T05:59:36;23.57;;;13.20;;
9178;SDS011;4624;48.126;11.546;2022-12-18T06:02:04;27.47;;;15.10;;
9178;SDS011;4624;48.126;11.546;2022-12-18T06:04:31;26.60;;;14.33;;
9178;SDS011;4624;48.126;11.546;2022-12-18T06:06:58;22.27;;;13.70;;
9178;SDS011;4624;48.126;11.546;2022-12-18T06:09:32;22.77;;;13.60;;
9178;SDS011;4624;48.126;11.546;2022-12-18T06:11:59;30.80;;;14.37;;
9178;SDS011;4624;48.126;11.546;2022-12-18T06:14:25;28.17;;;14.47;;
9178;SDS011;4624;48.126;11.546;2022-12-18T06:16:52;23.07;;;13.07;;
9178;SDS011;4624;48.126;11.546;2022-12-18T06:19:20;25.67;;;13.10;;
9178;SDS011;4624;48.126;11.546;2022-12-18T06:21:47;25.17;;;13.40;;
9178;SDS011;4624;48.126;11.546;2022-12-18T06:24:15;25.93;;;14.57;;
9178;SDS011;4624;48.126;11.546;2022-12-18T06:26:42;22.47;;;12.97;;
9178;SDS011;4624;48.126;11.546;2022-12-18T06:29:09;26.13;;;13.30;;
9178;SDS011;4624;48.126;11.546;2022-12-18T06:31:35;25.27;;;13.57;;
9178;SDS011;4624;48.126;11.546;2022-12-18T06:34:03;24.33;;;12.63;;
9178;SDS011;4624;48.126;11.546;2022-12-18T06:36:31;23.53;;;13.13;;
9178;SDS011;4624;48.126;11.546;2022-12-18T06:38:58;26.30;;;14.43;;
9178;SDS011;4624;48.126;11.546;2022-12-18T06:41:25;25.37;;;14.73;;
9178;SDS011;4624;48.126;11.546;2022-12-18T06:43:52;23.43;;;13.40;;
9178;SDS011;4624;48.126;11.546;2022-12-18T06:46:18;24.53;;;14.50;;
9178;SDS011;4624;48.126;11.546;2022-12-18T06:48:48;28.03;;;15.57;;
9178;SDS011;4624;48.126;11.546;2022-12-18T06:51:17;25.37;;;13.57;;
9178;SDS011;4624;48.126;11.546;2022-12-18T06:53:46;23.17;;;13.43;;
9178;SDS011;4624;48.126;11.546;2022-12-18T06:56:13;24.70;;;12.00;;
9178;SDS011;4624;48.126;11.546;2022-12-18T06:58:40;26.27;;;14.10;;
9178;SDS011;4624;48.126;11.546;2022-12-18T07:01:07;25.20;;;12.83;;
9178;SDS011;4624;48.126;11.546;2022-12-18T07:03:35;24.57;;;13.20;;
9178;SDS011;4624;48.126;11.546;2022-12-18T07:06:02;23.10;;;12.47;;
9178;SDS011;4624;48.126;11.546;2022-12-18T07:08:30;26.70;;;14.50;;
9178;SDS011;4624;48.126;11.546;2022-12-18T07:10:58;25.50;;;13.87;;
9178;SDS011;4624;48.126;11.546;2022-12-18T07:13:28;24.23;;;12.33;;
9178;SDS011;4624;48.126;11.546;2022-12-18T07:15:55;27.20;;;13.97;;
9178;SDS011;4624;48.126;11.546;2022-12-18T07:18:28;23.70;;;13.80;;
9178;SDS011;4624;48.126;11.546;2022-12-18T07:20:55;23.83;;;14.20;;
9178;SDS011;4624;48.126;11.546;2022-12-18T07:23:22;24.10;;;13.27;;
9178;SDS011;4624;48.126;11.546;2022-12-18T07:25:48;23.50;;;13.87;;
9178;SDS011;4624;48.126;11.546;2022-12-18T07:28:16;23.37;;;13.47;;
9178;SDS011;4624;48.126;11.546;2022-12-18T07:30:43;26.23;;;14.93;;
9178;SDS011;4624;48.126;11.546;2022-12-18T07:33:10;25.23;;;14.93;;
9178;SDS011;4624;48.126;11.546;2022-12-18T07:35:36;21.63;;;12.73;;
9178;SDS011;4624;48.126;11.546;2022-12-18T07:38:03;24.13;;;14.23;;
9178;SDS011;4624;48.126;11.546;2022-12-18T07:40:30;24.70;;;14.37;;
9178;SDS011;4624;48.126;11.546;2022-12-18T07:42:57;22.93;;;13.23;;
9178;SDS011;4624;48.126;11.546;2022-12-18T07:45:25;24.40;;;13.87;;
9178;SDS011;4624;48.126;11.546;2022-12-18T07:47:51;26.53;;;13.43;;
9178;SDS011;4624;48.126;11.546;2022-12-18T07:50:18;24.43;;;13.27;;
9178;SDS011;4624;48.126;11.546;2022-12-18T07:52:45;24.63;;;13.17;;
9178;SDS011;4624;48.126;11.546;2022-12-18T07:55:12;23.27;;;13.70;;
9178;SDS011;4624;48.126;11.546;2022-12-18T07:57:38;22.50;;;13.10;;
9178;SDS011;4624;48.126;11.546;2022-12-18T08:00:06;22.77;;;12.60;;
9178;SDS011;4624;48.126;11.546;2022-12-18T08:02:35;22.47;;;12.70;;
9178;SDS011;4624;48.126;11.546;2022-12-18T08:05:01;24.53;;;12.70;;
9178;SDS011;4624;48.126;11.546;2022-12-18T08:07:28;20.73;;;11.93;;
9178;SDS011;4624;48.126;11.546;2022-12-18T08:09:55;23.20;;;12.83;;
9178;SDS011;4624;48.126;11.546;2022-12-18T08:12:22;23.80;;;14.20;;
9178;SDS011;4624;48.126;11.546;2022-12-18T08:14:48;24.57;;;12.77;;
9178;SDS011;4624;48.126;11.546;2022-12-18T08:17:15;22.33;;;13.03;;
9178;SDS011;4624;48.126;11.546;2022-12-18T08:19:43;22.17;;;13.63;;
9178;SDS011;4624;48.126;11.546;2022-12-18T08:22:10;24.30;;;13.13;;
9178;SDS011;4624;48.126;11.546;2022-12-18T08:24:37;24.17;;;13.10;;
9178;SDS011;4624;48.126;11.546;2022-12-18T08:27:03;25.37;;;13.83;;
9178;SDS011;4624;48.126;11.546;2022-12-18T08:29:30;21.47;;;12.57;;
9178;SDS011;4624;48.126;11.546;2022-12-18T08:31:58;22.90;;;12.67;;
9178;SDS011;4624;48.126;11.546;2022-12-18T08:34:25;24.87;;;14.50;;
9178;SDS011;4624;48.126;11.546;2022-12-18T08:36:53;22.53;;;12.00;;
9178;SDS011;4624;48.126;11.546;2022-12-18T08:39:20;22.20;;;11.83;;
9178;SDS011;4624;48.126;11.546;2022-12-18T08:41:47;20.83;;;12.10;;
9178;SDS011;4624;48.126;11.546;2022-12-18T08:44:27;21.40;;;12.27;;
9178;SDS011;4624;48.126;11.546;2022-12-18T08:47:03;22.57;;;13.17;;
9178;SDS011;4624;48.126;11.546;2022-12-18T08:49:31;24.33;;;13.40;;
9178;SDS011;4624;48.126;11.546;2022-12-18T08:51:59;21.50;;;12.63;;
9178;SDS011;4624;48.126;11.546;2022-12-18T08:54:27;22.67;;;12.73;;
9178;SDS011;4624;48.126;11.546;2022-12-18T08:56:55;23.77;;;12.87;;
9178;SDS011;4624;48.126;11.546;2022-12-18T08:59:21;23.73;;;13.57;;
9178;SDS011;4624;48.126;11.546;2022-12-18T09:01:49;20.53;;;11.53;;
9178;SDS011;4624;48.126;11.546;2022-12-18T09:04:15;21.33;;;12.03;;
9178;SDS011;4624;48.126;11.546;2022-12-18T09:06:42;22.10;;;12.50;;
9178;SDS011;4624;48.126;11.546;2022-12-18T09:09:11;21.03;;;12.93;;
9178;SDS011;4624;48.126;11.546;2022-12-18T09:11:38;23.07;;;11.80;;
9178;SDS011;4624;48.126;11.546;2022-12-18T09:14:04;20.77;;;12.40;;
9178;SDS011;4624;48.126;11.546;2022-12-18T09:16:32;24.77;;;13.40;;
9178;SDS011;4624;48.126;11.546;2022-12-18T09:19:00;21.13;;;11.40;;
9178;SDS011;4624;48.126;11.546;2022-12-18T09:21:28;22.53;;;13.03;;
9178;SDS011;4624;48.126;11.546;2022-12-18T09:23:57;22.33;;;13.33;;
9178;SDS011;4624;48.126;11.546;2022-12-18T09:26:25;24.27;;;13.13;;
9178;SDS011;4624;48.126;11.546;2022-12-18T09:28:53;23.33;;;12.30;;
9178;SDS011;4624;48.126;11.546;2022-12-18T09:31:21;20.30;;;11.87;;
9178;SDS011;4624;48.126;11.546;2022-12-18T09:33:49;20.63;;;12.40;;
9178;SDS011;4624;48.126;11.546;2022-12-18T09:36:16;22.87;;;12.73;;
9178;SDS011;4624;48.126;11.546;2022-12-18T09:38:44;23.67;;;12.80;;
9178;SDS011;4624;48.126;11.546;2022-12-18T09:41:15;21.93;;;12.80;;
9178;SDS011;4624;48.126;11.546;2022-12-18T09:43:55;20.47;;;11.87;;
9178;SDS011;4624;48.126;11.546;2022-12-18T09:46:26;23.73;;;12.07;;
9178;SDS011;4624;48.126;11.546;2022-12-18T09:48:57;21.60;;;11.77;;
9178;SDS011;4624;48.126;11.546;2022-12-18T09:51:27;22.60;;;12.37;;
9178;SDS011;4624;48.126;11.546;2022-12-18T09:53:59;21.07;;;11.27;;
9178;SDS011;4624;48.126;11.546;2022-12-18T09:56:29;20.10;;;11.43;;
9178;SDS011;4624;48.126;11.546;2022-12-18T09:59:03;23.47;;;12.33;;
9178;SDS011;4624;48.126;11.546;2022-12-18T10:01:31;17.97;;;11.23;;
9178;SDS011;4624;48.126;11.546;2022-12-18T10:03:58;20.97;;;11.67;;
9178;SDS011;4624;48.126;11.546;2022-12-18T10:06:27;21.87;;;12.33;;
9178;SDS011;4624;48.126;11.546;2022-12-18T10:09:01;23.10;;;12.20;;
9178;SDS011;4624;48.126;11.546;2022-12-18T10:11:36;21.97;;;11.97;;
9178;SDS011;4624;48.126;11.546;2022-12-18T10:14:09;19.63;;;12.00;;
9178;SDS011;4624;48.126;11.546;2022-12-18T10:16:41;20.03;;;11.43;;
9178;SDS011;4624;48.126;11.546;2022-12-18T10:19:33;22.77;;;12.63;;
9178;SDS011;4624;48.126;11.546;2022-12-18T10:22:09;22.37;;;12.57;;
9178;SDS011;4624;48.126;11.546;2022-12-18T10:24:45;27.07;;;12.80;;
9178;SDS011;4624;48.126;11.546;2022-12-18T10:27:18;26.50;;;15.00;;
9178;SDS011;4624;48.126;11.546;2022-12-18T10:29:50;23.77;;;13.33;;
9178;SDS011;4624;48.126;11.546;2022-12-18T10:32:18;21.23;;;12.83;;
9178;SDS011;4624;48.126;11.546;2022-12-18T10:34:47;19.80;;;11.73;;
9178;SDS011;4624;48.126;11.546;2022-12-18T10:37:15;21.83;;;12.63;;
9178;SDS011;4624;48.126;11.546;2022-12-18T10:39:44;22.83;;;12.37;;
9178;SDS011;4624;48.126;11.546;2022-12-18T10:42:14;21.97;;;12.37;;
9178;SDS011;4624;48.126;11.546;2022-12-18T10:44:43;20.27;;;12.03;;
9178;SDS011;4624;48.126;11.546;2022-12-18T10:47:12;21.20;;;12.13;;
9178;SDS011;4624;48.126;11.546;2022-12-18T10:49:47;21.37;;;12.53;;
9178;SDS011;4624;48.126;11.546;2022-12-18T10:52:17;21.77;;;13.07;;
9178;SDS011;4624;48.126;11.546;2022-12-18T10:54:47;20.93;;;11.63;;
9178;SDS011;4624;48.126;11.546;2022-12-18T10:57:19;19.70;;;11.50;;
9178;SDS011;4624;48.126;11.546;2022-12-18T10:59:58;19.20;;;11.50;;
9178;SDS011;4624;48.126;11.546;2022-12-18T11:02:28;18.23;;;11.47;;
9178;SDS011;4624;48.126;11.546;2022-12-18T11:05:00;19.30;;;11.13;;
9178;SDS011;4624;48.126;11.546;2022-12-18T11:07:33;20.67;;;11.17;;
9178;SDS011;4624;48.126;11.546;2022-12-18T11:10:15;19.43;;;11.17;;
9178;SDS011;4624;48.126;11.546;2022-12-18T11:12:43;16.93;;;11.27;;
9178;SDS011;4624;48.126;11.546;2022-12-18T11:15:13;19.20;;;10.87;;
9178;SDS011;4624;48.126;11.546;2022-12-18T11:17:43;19.73;;;11.73;;
9178;SDS011;4624;48.126;11.546;2022-12-18T11:20:19;20.10;;;11.23;;
9178;SDS011;4624;48.126;11.546;2022-12-18T11:22:54;18.63;;;11.47;;
9178;SDS011;4624;48.126;11.546;2022-12-18T11:25:23;19.10;;;11.20;;
9178;SDS011;4624;48.126;11.546;2022-12-18T11:27:51;20.87;;;11.40;;
9178;SDS011;4624;48.126;11.546;2022-12-18T11:30:21;20.67;;;11.83;;
9178;SDS011;4624;48.126;11.546;2022-12-18T11:32:51;20.60;;;11.83;;
9178;SDS011;4624;48.126;11.546;2022-12-18T11:35:32;21.00;;;11.20;;
9178;SDS011;4624;48.126;11.546;2022-12-18T11:38:11;20.97;;;11.97;;
9178;SDS011;4624;48.126;11.546;2022-12-18T11:40:50;19.40;;;11.70;;
9178;SDS011;4624;48.126;11.546;2022-12-18T11:43:21;19.07;;;11.50;;
9178;SDS011;4624;48.126;11.546;2022-12-18T11:45:54;20.33;;;11.80;;
9178;SDS011;4624;48.126;11.546;2022-12-18T11:48:26;21.30;;;12.60;;
9178;SDS011;4624;48.126;11.546;2022-12-18T11:50:56;20.27;;;12.10;;
9178;SDS011;4624;48.126;11.546;2022-12-18T11:53:25;19.47;;;11.50;;
9178;SDS011;4624;48.126;11.546;2022-12-18T11:55:56;20.03;;;12.03;;
9178;SDS011;4624;48.126;11.546;2022-12-18T11:58:41;17.37;;;11.17;;
9178;SDS011;4624;48.126;11.546;2022-12-18T12:01:14;18.83;;;10.70;;
9178;SDS011;4624;48.126;11.546;2022-12-18T12:03:53;19.87;;;11.77;;
9178;SDS011;4624;48.126;11.546;2022-12-18T12:06:41;17.13;;;11.10;;
9178;SDS011;4624;48.126;11.546;2022-12-18T12:09:16;20.50;;;12.43;;
9178;SDS011;4624;48.126;11.546;2022-12-18T12:11:52;18.87;;;11.10;;
9178;SDS011;4624;48.126;11.546;2022-12-18T12:14:34;20.30;;;12.00;;
9178;SDS011;4624;48.126;11.546;2022-12-18T12:17:10;22.00;;;12.40;;
9178;SDS011;4624;48.126;11.546;2022-12-18T12:19:48;21.97;;;12.17;;
9178;SDS011;4624;48.126;11.546;2022-12-18T12:22:22;21.27;;;12.03;;
9178;SDS011;4624;48.126;11.546;2022-12-18T12:24:59;19.17;;;11.47;;
9178;SDS011;4624;48.126;11.546;2022-12-18T12:27:39;20.23;;;11.67;;
9178;SDS011;4624;48.126;11.546;2022-12-18T12:30:15;19.70;;;11.50;;
9178;SDS011;4624;48.126;11.546;2022-12-18T12:32:49;18.70;;;11.20;;
9178;SDS011;4624;48.126;11.546;2022-12-18T12:35:29;19.57;;;11.03;;
9178;SDS011;4624;48.126;11.546;2022-12-18T12:38:07;17.97;;;11.33;;
9178;SDS011;4624;48.126;11.546;2022-12-18T12:40:37;20.33;;;11.20;;
9178;SDS011;4624;48.126;11.546;2022-12-18T12:43:10;18.93;;;11.47;;
9178;SDS011;4624;48.126;11.546;2022-12-18T12:45:46;17.67;;;10.37;;
9178;SDS011;4624;48.126;11.546;2022-12-18T12:48:18;19.53;;;10.70;;
9178;SDS011;4624;48.126;11.546;2022-12-18T12:50:51;17.00;;;10.43;;
9178;SDS011;4624;48.126;11.546;2022-12-18T12:53:22;20.17;;;11.37;;
9178;SDS011;4624;48.126;11.546;2022-12-18T12:55:52;18.47;;;10.33;;
9178;SDS011;4624;48.126;11.546;2022-12-18T12:58:21;19.83;;;11.27;;
9178;SDS011;4624;48.126;11.546;2022-12-18T13:00:57;20.20;;;11.27;;
9178;SDS011;4624;48.126;11.546;2022-12-18T13:03:32;20.43;;;11.10;;
9178;SDS011;4624;48.126;11.546;2022-12-18T13:06:11;17.97;;;10.80;;
9178;SDS011;4624;48.126;11.546;2022-12-18T13:08:53;19.33;;;10.50;;
9178;SDS011;4624;48.126;11.546;2022-12-18T13:11:29;19.33;;;10.27;;
9178;SDS011;4624;48.126;11.546;2022-12-18T13:14:25;17.33;;;11.20;;
9178;SDS011;4624;48.126;11.546;2022-12-18T13:19:40;20.60;;;11.63;;
9178;SDS011;4624;48.126;11.546;2022-12-18T13:22:20;18.47;;;10.63;;
9178;SDS011;4624;48.126;11.546;2022-12-18T13:24:48;22.00;;;10.40;;
9178;SDS011;4624;48.126;11.546;2022-12-18T13:30:42;18.07;;;11.00;;
9178;SDS011;4624;48.126;11.546;2022-12-18T13:36:17;19.10;;;11.20;;
9178;SDS011;4624;48.126;11.546;2022-12-18T13:41:49;16.13;;;10.17;;
9178;SDS011;4624;48.126;11.546;2022-12-18T13:44:23;17.73;;;10.53;;
9178;SDS011;4624;48.126;11.546;2022-12-18T13:46:58;18.60;;;10.50;;
9178;SDS011;4624;48.126;11.546;2022-12-18T13:49:27;21.53;;;11.97;;
9178;SDS011;4624;48.126;11.546;2022-12-18T13:52:03;20.73;;;10.70;;
9178;SDS011;4624;48.126;11.546;2022-12-18T13:54:43;18.23;;;11.07;;
9178;SDS011;4624;48.126;11.546;2022-12-18T13:57:24;17.40;;;10.03;;
9178;SDS011;4624;48.126;11.546;2022-12-18T13:59:53;19.03;;;10.87;;
9178;SDS011;4624;48.126;11.546;2022-12-18T14:02:20;21.63;;;11.27;;
9178;SDS011;4624;48.126;11.546;2022-12-18T14:04:50;19.60;;;11.10;;
9178;SDS011;4624;48.126;11.546;2022-12-18T14:07:17;19.57;;;11.37;;
9178;SDS011;4624;48.126;11.546;2022-12-18T14:09:49;22.40;;;12.33;;
9178;SDS011;4624;48.126;11.546;2022-12-18T14:12:18;20.70;;;11.20;;
9178;SDS011;4624;48.126;11.546;2022-12-18T14:15:14;24.00;;;13.00;;
9178;SDS011;4624;48.126;11.546;2022-12-18T14:17:50;20.10;;;12.13;;
9178;SDS011;4624;48.126;11.546;2022-12-18T14:20:18;20.57;;;12.07;;
9178;SDS011;4624;48.126;11.546;2022-12-18T14:22:45;21.13;;;12.13;;
9178;SDS011;4624;48.126;11.546;2022-12-18T14:25:16;23.60;;;12.80;;
9178;SDS011;4624;48.126;11.546;2022-12-18T14:27:45;22.37;;;13.13;;
9178;SDS011;4624;48.126;11.546;2022-12-18T14:30:26;19.67;;;12.37;;
9178;SDS011;4624;48.126;11.546;2022-12-18T14:33:00;19.93;;;10.97;;
9178;SDS011;4624;48.126;11.546;2022-12-18T14:35:31;20.67;;;11.80;;
9178;SDS011;4624;48.126;11.546;2022-12-18T14:38:20;19.57;;;12.00;;
9178;SDS011;4624;48.126;11.546;2022-12-18T14:40:55;18.23;;;11.93;;
9178;SDS011;4624;48.126;11.546;2022-12-18T14:43:26;18.63;;;11.60;;
9178;SDS011;4624;48.126;11.546;2022-12-18T14:45:54;21.53;;;12.40;;
9178;SDS011;4624;48.126;11.546;2022-12-18T14:48:22;19.37;;;10.73;;
9178;SDS011;4624;48.126;11.546;2022-12-18T14:50:59;20.33;;;11.47;;
9178;SDS011;4624;48.126;11.546;2022-12-18T14:53:31;20.63;;;11.73;;
9178;SDS011;4624;48.126;11.546;2022-12-18T14:56:02;20.87;;;11.60;;
9178;SDS011;4624;48.126;11.546;2022-12-18T14:58:29;20.63;;;11.93;;
9178;SDS011;4624;48.126;11.546;2022-12-18T15:00:56;21.37;;;12.57;;
9178;SDS011;4624;48.126;11.546;2022-12-18T15:03:23;21.93;;;12.33;;
9178;SDS011;4624;48.126;11.546;2022-12-18T15:05:50;20.90;;;12.30;;